DW4394 Weather Reports


Display with metric or nautical units.
time (UTC)temp
F
wind
direction
speed
MPH
gust
MPH
rain 1hr
in
rain 24hr
in
rain mn
in
humidity
%
barometer
mb
20200531170009 82 360 7.0 19.0 0.00 0.00 0.00 21 1005.1
20200531164509 82 360 1.0 12.0 0.00 0.00 0.00 23 1005.2
20200531163006 81 360 5.0 15.0 0.00 0.00 0.00 24 1005.2
20200531160209 78 360 7.0 20.0 0.00 0.00 0.00 28 1005.1
20200531154730 78 360 5.0 15.0 0.00 0.00 0.00 29 1005.2
20200531153204 76 360 6.0 18.0 0.00 0.00 0.00 28 1005.0
20200531151634 75 360 6.0 25.0 0.00 0.00 0.00 30 1005.0
20200531150123 74 360 17.0 27.0 0.00 0.00 0.00 32 1004.8
20200531144619 72 360 14.0 28.0 0.00 0.00 0.00 34 1004.5
20200531143048 71 360 12.0 29.0 0.00 0.00 0.00 34 1004.5
20200531141614 70 360 13.0 25.0 0.00 0.00 0.00 35 1004.4
20200531140207 70 360 16.0 31.0 0.00 0.00 0.00 35 1004.1
20200531134618 70 360 15.0 25.0 0.00 0.00 0.00 35 1004.1
20200531133147 71 360 12.0 27.0 0.00 0.00 0.00 35 1003.9
20200531131629 71 360 11.0 25.0 0.00 0.00 0.00 34 1003.9
20200531130053 71 360 9.0 22.0 0.00 0.00 0.00 34 1003.9
20200531124617 71 360 4.0 21.0 0.00 0.00 0.00 33 1003.9
20200531123120 70 360 8.0 30.0 0.00 0.00 0.00 33 1003.7
20200531121551 71 360 18.0 31.0 0.00 0.00 0.00 34 1003.7
20200531120049 71 360 17.0 28.0 0.00 0.00 0.00 33 1003.4
20200531114556 71 360 19.0 34.0 0.00 0.00 0.00 33 1003.5
20200531113052 71 360 18.0 29.0 0.00 0.00 0.00 32 1003.4
20200531111541 72 360 17.0 29.0 0.00 0.00 0.00 31 1003.4
20200531110048 72 360 16.0 29.0 0.00 0.00 0.00 31 1003.4
20200531104516 72 360 14.0 28.0 0.00 0.02 0.00 31 1003.1
20200531103031 71 360 17.0 29.0 0.00 0.02 0.00 31 1002.8
20200531101509 71 360 16.0 28.0 0.00 0.02 0.00 33 1003.0
20200531100006 72 360 12.0 25.0 0.00 0.02 0.00 31 1002.8
20200531094501 73 360 16.0 25.0 0.00 0.02 0.00 30 1002.7
20200531093155 74 360 13.0 24.0 0.00 0.02 0.00 28 1002.7
20200531091740 75 360 6.0 20.0 0.00 0.02 0.00 26 1002.7
20200531090135 75 360 11.0 25.0 0.00 0.02 0.00 26 1002.7
20200531084657 76 360 10.0 24.0 0.00 0.02 0.00 26 1002.7
20200531083156 76 360 12.0 24.0 0.00 0.02 0.00 25 1002.6
20200531081622 76 360 8.0 21.0 0.00 0.02 0.00 24 1002.6
20200531080242 77 360 7.0 14.0 0.00 0.02 0.00 24 1002.5
20200531074640 77 360 3.0 12.0 0.00 0.02 0.00 23 1002.4
20200531073117 78 360 8.0 20.0 0.00 0.02 0.00 22 1002.3
20200531071638 78 360 6.0 21.0 0.00 0.02 0.00 21 1002.1
20200531070047 79 360 7.0 18.0 0.00 0.02 0.00 20 1002.0
20200531064535 80 360 3.0 14.0 0.00 0.02 0.02 19 1001.8
20200531063041 80 360 4.0 18.0 0.00 0.02 0.02 18 1001.7
20200531061545 80 360 4.0 20.0 0.00 0.02 0.02 18 1001.6
20200531060044 80 360 6.0 16.0 0.00 0.02 0.02 17 1001.9
20200531054553 80 360 4.0 12.0 0.00 0.02 0.02 17 1001.9
20200531053055 80 360 5.0 12.0 0.00 0.02 0.02 16 1001.8
20200531051527 80 360 7.0 16.0 0.00 0.02 0.02 17 1001.8
20200531050037 80 360 6.0 11.0 0.00 0.02 0.02 17 1001.6
20200531044627 80 360 3.0 7.0 0.00 0.02 0.02 16 1001.4
20200531043031 80 360 2.0 9.0 0.00 0.02 0.02 16 1001.3
20200531041632 81 360 3.0 7.0 0.00 0.02 0.02 16 1001.3
20200531040025 81 360 0.0 0.0 0.00 0.02 0.02 15 1001.0
20200531034528 82 360 0.0 5.0 0.00 0.02 0.02 15 1000.9
20200531033035 83 360 3.0 8.0 0.00 0.02 0.02 15 1000.7
20200531031523 83 360 5.0 13.0 0.00 0.02 0.02 16 1000.6
20200531030057 84 360 8.0 14.0 0.00 0.02 0.02 14 1000.6
20200531024527 85 360 4.0 11.0 0.00 0.02 0.02 15 1000.5
20200531023020 86 360 0.0 5.0 0.00 0.02 0.02 16 1000.4
20200531021526 87 360 4.0 8.0 0.00 0.02 0.02 16 1000.4
20200531020026 88 360 3.0 13.0 0.00 0.02 0.02 14 1000.1
20200531014533 89 360 1.0 16.0 0.00 0.02 0.02 15 1000.0
20200531013032 89 360 3.0 17.0 0.00 0.02 0.02 14 999.9
20200531011529 89 360 8.0 21.0 0.00 0.02 0.02 14 999.9
20200531010016 90 360 11.0 21.0 0.00 0.02 0.02 14 999.9
20200531004512 90 360 4.0 19.0 0.00 0.02 0.02 14 999.9
20200531003015 90 360 1.0 26.0 0.00 0.02 0.02 14 999.8
20200531001542 91 360 6.0 23.0 0.00 0.02 0.02 13 1000.2
20200531000012 92 360 8.0 23.0 0.00 0.02 0.02 13 1000.3
20200530234538 94 360 8.0 19.0 0.00 0.02 0.02 13 1000.3
20200530233012 94 360 11.0 32.0 0.00 0.02 0.02 13 1000.2
20200530231511 94 360 9.0 25.0 0.00 0.02 0.02 14 1000.3
20200530230023 93 360 15.0 24.0 0.00 0.02 0.02 14 1000.4
20200530224508 93 360 6.0 23.0 0.00 0.02 0.02 17 1000.3
20200530223008 93 360 6.0 19.0 0.00 0.02 0.02 16 1000.3
20200530221509 93 360 3.0 19.0 0.00 0.02 0.02 16 1000.3
20200530220006 93 360 14.0 24.0 0.00 0.02 0.02 15 1000.2
20200530214521 93 360 4.0 12.0 0.00 0.02 0.02 16 1000.2
20200530213021 94 360 4.0 14.0 0.00 0.02 0.02 14 1000.4
20200530211523 96 360 2.0 22.0 0.00 0.02 0.02 13 1000.4
20200530210020 98 360 8.0 27.0 0.00 0.02 0.02 14 1000.1
20200530204510 99 360 8.0 32.0 0.00 0.02 0.02 13 1000.2
20200530203018 100 360 19.0 38.0 0.00 0.02 0.02 12 1000.1
20200530200316 101 360 7.0 19.0 0.00 0.02 0.02 13 1000.5
20200530194650 100 360 7.0 27.0 0.00 0.02 0.02 13 1000.6
20200530193142 100 360 12.0 25.0 0.00 0.02 0.02 13 1000.8
20200530191649 100 360 13.0 27.0 0.00 0.02 0.02 14 1001.1
20200530190132 99 360 7.0 19.0 0.00 0.02 0.02 14 1001.1
20200530184634 99 134 4.0 24.0 0.00 0.02 0.02 15 1001.1
20200530183149 98 360 6.0 23.0 0.00 0.02 0.02 17 1001.3
20200530181602 98 148 1.0 12.0 0.00 0.02 0.02 23 1001.6
20200530180055 96 360 3.0 13.0 0.00 0.02 0.02 19 1001.7
20200530174553 95 360 6.0 15.0 0.00 0.02 0.02 20 1001.8
20200530173228 95 360 1.0 9.0 0.00 0.02 0.02 20 1001.9
20200530171634 93 360 6.0 16.0 0.00 0.02 0.02 21 1002.2